Time;durP1;ratioP1;P1;durP2;ratioP2;P2;SDS_P1;SDS_P2;PMS_P1;PMS_P2;Temp;Humidity;BMP_temperature;BMP_pressure;BME280_temperature;BME280_humidity;BME280_pressure;Samples;Min_cycle;Max_cycle;Signal;HPM_P1;HPM_P2
2022/01/19 00:01:22;;;;;;;44.20;21.13;;;;;;;2.65;83.36;103179.34;5072938;28;20048;-63
2022/01/19 00:03:48;;;;;;;35.17;20.08;;;;;;;2.69;82.88;103173.25;5078345;28;20407;-63
2022/01/19 00:06:13;;;;;;;32.97;20.43;;;;;;;2.58;82.83;103146.88;5092798;28;20058;-63
2022/01/19 00:08:39;;;;;;;39.07;20.17;;;;;;;2.63;83.18;103155.69;5082710;28;20066;-63
2022/01/19 00:11:04;;;;;;;35.23;20.60;;;;;;;2.61;82.62;103148.66;5073669;28;20020;-63
2022/01/19 00:13:30;;;;;;;32.28;20.23;;;;;;;2.49;82.58;103163.44;5072582;28;20052;-63
2022/01/19 00:15:58;;;;;;;38.17;20.10;;;;;;;2.50;82.76;103159.09;5078135;28;20086;-63
2022/01/19 00:18:26;;;;;;;30.65;20.73;;;;;;;2.42;82.87;103159.03;5072285;28;20040;-63
2022/01/19 00:20:53;;;;;;;28.70;19.15;;;;;;;2.23;82.71;103155.34;5073851;28;20038;-63
2022/01/19 00:23:19;;;;;;;37.45;20.35;;;;;;;2.32;83.29;103153.69;5074670;28;20483;-63
2022/01/19 00:25:49;;;;;;;32.17;19.30;;;;;;;2.24;82.86;103146.63;5079374;28;20031;-63
2022/01/19 00:28:15;;;;;;;35.45;19.00;;;;;;;2.26;83.16;103138.75;5074948;28;20020;-63
2022/01/19 00:30:41;;;;;;;29.67;19.70;;;;;;;2.18;83.08;103124.72;5073622;28;20557;-63
2022/01/19 00:33:07;;;;;;;34.70;20.13;;;;;;;2.04;83.33;103104.44;5074190;28;20041;-63
2022/01/19 00:35:36;;;;;;;36.80;21.40;;;;;;;2.02;83.45;103087.81;5072718;28;20029;-63
2022/01/19 00:38:06;;;;;;;35.50;20.13;;;;;;;2.00;83.59;103067.66;5072518;28;20475;-63
2022/01/19 00:40:33;;;;;;;35.83;20.37;;;;;;;2.02;83.70;103056.31;5074506;28;20029;-63
2022/01/19 00:42:59;;;;;;;35.37;21.23;;;;;;;2.04;84.16;103043.22;5071580;28;20739;-63
2022/01/19 00:45:24;;;;;;;32.40;19.53;;;;;;;2.03;84.11;103047.59;5072360;28;20029;-63
2022/01/19 00:47:50;;;;;;;36.30;20.70;;;;;;;2.01;84.27;103057.19;5071169;28;20078;-63
2022/01/19 00:50:22;;;;;;;42.87;22.43;;;;;;;2.01;84.18;103074.69;5072554;28;20094;-63
2022/01/19 00:52:49;;;;;;;67.77;24.23;;;;;;;2.07;84.75;103073.84;5070841;28;20024;-63
2022/01/19 00:55:14;;;;;;;88.50;24.00;;;;;;;1.99;85.12;103077.28;5072374;28;20028;-63
2022/01/19 00:57:41;;;;;;;84.88;25.10;;;;;;;1.90;84.80;103077.22;5071800;28;20031;-63
2022/01/19 01:00:10;;;;;;;115.90;27.08;;;;;;;1.92;85.59;103087.72;5071752;28;20519;-63
2022/01/19 01:02:36;;;;;;;94.28;25.55;;;;;;;1.98;85.38;103093.91;5072113;28;20040;-63
2022/01/19 01:05:04;;;;;;;75.10;28.37;;;;;;;1.92;85.36;103080.72;5072092;28;20082;-63
2022/01/19 01:07:33;;;;;;;71.63;26.48;;;;;;;1.94;85.42;103067.59;5071996;28;20055;-63
2022/01/19 01:09:59;;;;;;;87.77;27.63;;;;;;;1.93;85.51;103071.09;5072100;28;20056;-63
2022/01/19 01:12:32;;;;;;;65.73;25.13;;;;;;;1.90;85.43;103066.72;5072691;28;20056;-63
2022/01/19 01:20:25;;;;;;;52.03;24.07;;;;;;;1.71;85.48;103026.31;5070989;28;20060;-63
2022/01/19 01:22:50;;;;;;;74.93;25.40;;;;;;;1.76;85.99;103034.22;5071932;28;20418;-63
2022/01/19 01:25:16;;;;;;;54.03;26.13;;;;;;;1.73;86.42;103021.94;5072203;28;20059;-63
2022/01/19 01:27:44;;;;;;;49.90;26.57;;;;;;;1.77;86.84;103007.16;5072197;28;20115;-63
2022/01/19 01:30:09;;;;;;;58.23;26.77;;;;;;;1.64;85.85;102986.91;5071308;28;20024;-63
2022/01/19 01:32:38;;;;;;;56.37;27.13;;;;;;;1.72;86.15;102996.59;5071730;28;20399;-63
2022/01/19 01:35:05;;;;;;;45.77;25.40;;;;;;;1.67;85.67;102992.19;5053743;28;20055;-63
2022/01/19 01:37:30;;;;;;;48.40;25.47;;;;;;;1.69;85.73;102972.97;5071360;28;20475;-63
2022/01/19 01:39:56;;;;;;;45.30;26.93;;;;;;;1.70;85.86;102961.59;5070899;28;20043;-63
2022/01/19 01:42:23;;;;;;;40.03;25.23;;;;;;;1.66;85.70;102954.59;5070511;28;20039;-63
2022/01/19 01:44:52;;;;;;;41.57;25.27;;;;;;;1.64;85.55;102937.94;5070032;28;20403;-63
2022/01/19 01:47:19;;;;;;;37.47;24.50;;;;;;;1.65;85.67;102950.22;5070113;28;20074;-63
2022/01/19 01:54:58;;;;;;;43.83;25.87;;;;;;;1.74;86.99;102950.28;5071062;28;20113;-63
2022/01/19 01:57:23;;;;;;;38.07;25.40;;;;;;;1.68;86.13;102958.09;5071293;28;20032;-63
2022/01/19 01:59:52;;;;;;;38.33;23.90;;;;;;;1.73;85.71;102966.88;5070981;28;20036;-63
2022/01/19 02:02:18;;;;;;;39.27;24.03;;;;;;;1.62;85.66;102955.44;5069735;28;20056;-63
2022/01/19 02:04:43;;;;;;;38.93;23.97;;;;;;;1.62;85.66;102951.91;5070981;28;20602;-63
2022/01/19 02:09:59;;;;;;;42.97;24.93;;;;;;;1.54;85.71;102936.13;5070731;28;20071;-63
2022/01/19 02:23:47;;;;;;;41.53;25.40;;;;;;;1.44;85.01;102919.47;5074050;28;20078;-63
2022/01/19 02:26:23;;;;;;;44.73;26.07;;;;;;;1.44;85.32;102921.19;5071238;28;20387;-63
2022/01/19 02:42:30;;;;;;;39.97;24.53;;;;;;;1.24;85.61;102848.50;5070243;28;20082;-63
2022/01/19 02:49:52;;;;;;;46.80;25.73;;;;;;;1.16;84.90;102841.44;5070100;28;20497;-63
2022/01/19 02:52:23;;;;;;;43.67;25.30;;;;;;;1.07;85.24;102832.66;5085629;28;20043;-63
2022/01/19 02:54:50;;;;;;;44.90;27.47;;;;;;;1.00;85.33;102832.56;5082892;28;20040;-63
2022/01/19 02:57:16;;;;;;;45.00;26.63;;;;;;;1.06;85.60;102844.00;5069539;28;20467;-62
2022/01/19 03:10:23;;;;;;;45.23;26.23;;;;;;;1.01;85.26;102821.25;5074390;28;20427;-63
2022/01/19 03:12:49;;;;;;;41.00;25.83;;;;;;;0.97;85.17;102803.72;5074963;28;20024;-63
2022/01/19 03:15:15;;;;;;;38.63;25.27;;;;;;;0.95;84.88;102800.25;5073229;28;20024;-63
2022/01/19 03:17:40;;;;;;;45.40;26.00;;;;;;;0.85;85.18;102797.53;5074681;28;20024;-63
2022/01/19 03:20:10;;;;;;;43.23;26.50;;;;;;;0.90;85.32;102798.44;5072640;28;20044;-63
2022/01/19 03:22:42;;;;;;;;;;;;;;;1.05;85.21;102799.44;5075246;28;20379;-63
2022/01/19 03:25:12;;;;;;;52.10;29.73;;;;;;;0.87;85.49;102784.44;5074141;28;19913;-63
2022/01/19 03:27:39;;;;;;;45.45;25.77;;;;;;;0.87;85.59;102787.06;5074521;28;20024;-63
2022/01/19 03:30:09;;;;;;;50.73;28.73;;;;;;;0.92;86.95;102781.88;5074064;28;20105;-63
2022/01/19 03:32:35;;;;;;;42.03;25.90;;;;;;;0.88;85.95;102773.09;5074185;28;20032;-63
2022/01/19 03:35:01;;;;;;;43.40;25.57;;;;;;;0.84;85.96;102769.56;5074123;28;20108;-63
2022/01/19 03:37:26;;;;;;;55.20;27.70;;;;;;;0.70;85.44;102755.47;5073810;28;20395;-63
2022/01/19 03:39:51;;;;;;;43.30;26.40;;;;;;;0.74;86.05;102761.66;5072252;28;20107;-63
2022/01/19 03:42:17;;;;;;;41.50;25.80;;;;;;;0.74;85.77;102762.53;5072816;28;20036;-63
2022/01/19 03:44:43;;;;;;;45.27;28.67;;;;;;;0.81;87.12;102758.19;5073733;28;20028;-63
2022/01/19 03:47:09;;;;;;;44.00;27.30;;;;;;;0.84;87.79;102759.09;5072351;28;20029;-63
2022/01/19 03:49:37;;;;;;;43.50;27.57;;;;;;;0.77;87.08;102745.97;5072321;28;20043;-63
2022/01/19 03:52:05;;;;;;;47.57;27.83;;;;;;;0.78;87.16;102747.72;5073857;28;20041;-63
2022/01/19 03:54:34;;;;;;;51.50;29.20;;;;;;;0.80;87.64;102727.66;5073423;28;20078;-63
2022/01/19 03:57:00;;;;;;;51.43;29.17;;;;;;;0.84;88.16;102717.19;5073115;28;20036;-63
2022/01/19 03:59:26;;;;;;;50.30;29.27;;;;;;;0.84;87.84;102721.56;5073141;28;20082;-63
2022/01/19 04:01:53;;;;;;;46.67;28.60;;;;;;;0.86;88.42;102714.59;5073445;28;20048;-64
2022/01/19 04:05:15;;;;;;;52.97;29.80;;;;;;;0.89;89.11;102719.88;5072398;28;20056;-63
2022/01/19 04:09:35;;;;;;;44.70;27.27;;;;;;;0.88;88.30;102710.22;5073237;28;20119;-63
2022/01/19 04:12:00;;;;;;;49.23;30.10;;;;;;;0.86;88.54;102709.38;5073377;28;20054;-63
2022/01/19 04:14:26;;;;;;;48.37;29.73;;;;;;;0.85;87.96;102705.88;5073510;28;20021;-63
2022/01/19 04:16:59;;;;;;;54.57;31.07;;;;;;;0.89;88.66;102704.16;5073022;28;20041;-63
2022/01/19 04:19:36;;;;;;;52.67;31.40;;;;;;;0.83;88.96;102702.34;5071369;28;20025;-63
2022/01/19 04:22:05;;;;;;;60.37;31.43;;;;;;;0.77;89.55;102683.97;5073097;28;20081;-63
2022/01/19 04:24:31;;;;;;;54.20;32.50;;;;;;;0.82;90.30;102691.84;5071620;28;20020;-63
2022/01/19 04:27:24;;;;;;;54.27;32.40;;;;;;;0.83;90.32;102691.88;5073567;28;20111;-63
2022/01/19 04:30:00;;;;;;;56.67;34.77;;;;;;;0.88;90.19;102695.41;5072709;28;20040;-63
2022/01/19 04:32:37;;;;;;;59.67;36.27;;;;;;;0.87;91.04;102695.38;5073214;28;20027;-63
2022/01/19 04:35:06;;;;;;;66.67;35.40;;;;;;;0.88;91.15;102702.38;5072736;28;20032;-63
2022/01/19 04:45:59;;;;;;;66.43;37.63;;;;;;;0.89;91.00;102707.63;5071396;28;20074;-63
2022/01/19 05:07:18;;;;;;;72.87;39.07;;;;;;;0.85;91.48;102686.63;5072361;28;20043;-63
2022/01/19 05:15:18;;;;;;;73.73;39.77;;;;;;;0.72;91.58;102669.09;5074114;28;20120;-63
2022/01/19 05:17:44;;;;;;;71.37;40.07;;;;;;;0.77;91.64;102681.38;5072434;28;20025;-63
2022/01/19 05:20:11;;;;;;;83.70;41.10;;;;;;;0.72;91.88;102690.06;5071089;28;20042;-63
2022/01/19 05:22:37;;;;;;;78.87;40.80;;;;;;;0.73;92.23;102686.56;5082437;28;20410;-63
2022/01/19 05:25:03;;;;;;;70.73;40.70;;;;;;;0.74;92.77;102685.72;5083690;28;20032;-63
2022/01/19 05:27:37;;;;;;;69.10;38.47;;;;;;;0.70;92.72;102682.16;5073099;28;20464;-63
2022/01/19 05:30:03;;;;;;;74.80;40.60;;;;;;;0.76;92.53;102690.06;5072276;28;20040;-63
2022/01/19 05:32:29;;;;;;;74.07;40.57;;;;;;;0.78;92.81;102690.97;5074328;28;20016;-63
2022/01/19 05:34:57;;;;;;;69.37;39.13;;;;;;;0.80;92.67;102685.75;5073226;28;20044;-62
2022/01/19 05:37:22;;;;;;;68.57;38.67;;;;;;;0.83;92.53;102678.78;5074952;28;20020;-63
2022/01/19 05:39:48;;;;;;;69.60;37.83;;;;;;;0.87;92.17;102679.69;5073229;28;20037;-63
2022/01/19 05:42:15;;;;;;;67.63;36.87;;;;;;;0.92;92.54;102685.84;5070029;28;20039;-63
2022/01/19 05:44:47;;;;;;;63.23;36.40;;;;;;;0.93;92.78;102684.94;5072888;28;20130;-63
2022/01/19 05:47:13;;;;;;;68.63;37.87;;;;;;;0.94;92.41;102680.59;5074205;28;20407;-63
2022/01/19 05:49:39;;;;;;;61.87;36.23;;;;;;;0.94;92.70;102678.84;5071291;28;20099;-63
2022/01/19 05:52:06;;;;;;;60.40;36.70;;;;;;;1.00;92.68;102680.63;5071185;28;20178;-62
2022/01/19 05:54:33;;;;;;;61.07;36.57;;;;;;;1.01;92.73;102666.69;5071536;28;20383;-63
2022/01/19 05:56:58;;;;;;;57.83;35.40;;;;;;;1.01;92.47;102667.53;5070903;28;20074;-63
2022/01/19 05:59:24;;;;;;;54.67;34.70;;;;;;;1.03;92.34;102665.81;5069948;28;20036;-63
2022/01/19 06:01:52;;;;;;;55.80;34.53;;;;;;;1.06;92.65;102663.22;5071044;28;20040;-63
2022/01/19 06:04:20;;;;;;;56.17;35.07;;;;;;;1.06;92.47;102672.78;5070527;28;20042;-63
2022/01/19 06:06:45;;;;;;;56.13;34.90;;;;;;;1.08;92.28;102658.84;5070202;28;20491;-63
2022/01/19 06:09:32;;;;;;;56.67;33.67;;;;;;;1.14;92.46;102663.25;5069662;28;20031;-63
2022/01/19 06:11:56;;;;;;;56.63;34.93;;;;;;;1.17;92.78;102660.63;5070791;28;20072;-63
2022/01/19 06:14:22;;;;;;;55.50;35.00;;;;;;;1.19;92.40;102655.41;5069260;28;20137;-63
2022/01/19 06:16:50;;;;;;;53.20;34.00;;;;;;;1.23;92.40;102650.19;5071033;28;20033;-63
2022/01/19 06:19:19;;;;;;;56.03;34.67;;;;;;;1.22;92.70;102652.81;5070426;28;20468;-63
2022/01/19 06:21:45;;;;;;;56.07;34.57;;;;;;;1.24;92.78;102651.09;5070261;28;20060;-63
2022/01/19 06:24:10;;;;;;;57.87;33.00;;;;;;;1.27;92.60;102643.22;5070107;28;20307;-63
2022/01/19 06:26:38;;;;;;;53.27;34.47;;;;;;;1.26;93.04;102642.34;5069779;28;20020;-63
2022/01/19 06:29:06;;;;;;;57.63;33.87;;;;;;;1.26;92.72;102634.47;5070905;28;20052;-62
2022/01/19 06:31:31;;;;;;;52.70;34.63;;;;;;;1.30;92.70;102638.88;5084222;28;20035;-63
2022/01/19 06:33:59;;;;;;;52.70;34.53;;;;;;;1.29;93.09;102634.47;5070181;28;20028;-63
2022/01/19 06:36:25;;;;;;;53.70;33.53;;;;;;;1.30;92.70;102628.38;5069162;28;20056;-63
2022/01/19 06:38:50;;;;;;;52.47;33.07;;;;;;;1.32;93.11;102633.63;5071261;28;20055;-63
2022/01/19 06:41:16;;;;;;;53.47;34.27;;;;;;;1.40;92.99;102620.56;5070322;28;20064;-63
2022/01/19 06:43:41;;;;;;;49.03;33.00;;;;;;;1.42;92.55;102611.84;5071278;28;20036;-63
2022/01/19 06:46:06;;;;;;;54.90;34.67;;;;;;;1.35;92.94;102610.94;5070587;28;20029;-63
2022/01/19 06:48:32;;;;;;;51.40;32.40;;;;;;;1.38;92.88;102604.81;5069977;28;21630;-63
2022/01/19 06:50:58;;;;;;;55.10;33.43;;;;;;;1.35;92.81;102595.22;5070359;28;20028;-63
2022/01/19 06:53:24;;;;;;;53.17;32.03;;;;;;;1.41;92.52;102603.94;5070812;28;20107;-63
2022/01/19 06:55:54;;;;;;;52.03;32.83;;;;;;;1.45;92.81;102603.09;5069127;28;20476;-65
2022/01/19 06:58:20;;;;;;;47.33;31.67;;;;;;;1.45;92.48;102597.88;5070411;28;20039;-65
2022/01/19 07:00:45;;;;;;;48.87;32.07;;;;;;;1.46;92.79;102600.47;5069693;28;20017;-65
2022/01/19 07:03:10;;;;;;;50.17;32.67;;;;;;;1.46;92.80;102592.59;5069848;28;20025;-65
2022/01/19 07:05:36;;;;;;;51.23;31.53;;;;;;;1.41;92.85;102583.84;5070133;28;20518;-65
2022/01/19 07:08:01;;;;;;;49.77;31.30;;;;;;;1.44;92.72;102582.97;5069745;28;20020;-65
2022/01/19 07:10:31;;;;;;;50.00;32.50;;;;;;;1.49;92.74;102583.88;5070081;28;20017;-65
2022/01/19 07:13:01;;;;;;;49.65;32.20;;;;;;;1.41;92.68;102581.22;5070519;28;20024;-65
2022/01/19 07:15:27;;;;;;;49.50;32.13;;;;;;;1.40;92.79;102576.88;5069999;28;20024;-65
2022/01/19 07:17:55;;;;;;;49.07;32.13;;;;;;;1.43;93.40;102582.13;5068385;28;20040;-65
2022/01/19 07:20:23;;;;;;;52.10;31.73;;;;;;;1.43;93.25;102574.25;5070309;28;20031;-65
2022/01/19 07:22:48;;;;;;;45.50;30.43;;;;;;;1.45;93.64;102579.50;5070329;28;20024;-65
2022/01/19 07:25:17;;;;;;;46.97;31.50;;;;;;;1.50;93.14;102576.03;5069477;28;20023;-65
2022/01/19 07:27:43;;;;;;;49.10;32.43;;;;;;;1.44;93.55;102575.13;5069041;28;20043;-64
2022/01/19 07:30:10;;;;;;;47.47;31.40;;;;;;;1.45;93.60;102569.91;5069993;28;20479;-65
2022/01/19 07:32:37;;;;;;;44.57;30.43;;;;;;;1.47;93.72;102573.41;5069770;28;20016;-65
2022/01/19 07:35:04;;;;;;;45.20;30.23;;;;;;;1.47;93.73;102576.03;5070181;28;20048;-65
2022/01/19 07:37:29;;;;;;;48.53;30.87;;;;;;;1.51;93.46;102576.91;5070384;28;20021;-64
2022/01/19 07:39:57;;;;;;;46.27;30.27;;;;;;;1.48;93.98;102575.16;5069871;28;20029;-65
2022/01/19 07:42:25;;;;;;;50.10;31.47;;;;;;;1.53;94.18;102569.91;5070117;28;20035;-65
2022/01/19 07:44:53;;;;;;;50.17;31.20;;;;;;;1.52;93.78;102569.03;5070319;28;20024;-65
2022/01/19 07:47:19;;;;;;;46.90;31.00;;;;;;;1.51;93.95;102548.94;5051843;28;20082;-65
2022/01/19 07:49:45;;;;;;;46.83;31.20;;;;;;;1.56;94.18;102547.19;5069707;28;20016;-65
2022/01/19 07:52:13;;;;;;;44.73;30.47;;;;;;;1.46;93.72;102537.56;5070155;28;20127;-65
2022/01/19 07:54:38;;;;;;;45.90;31.23;;;;;;;1.56;94.12;102552.44;5073017;28;20086;-63
2022/01/19 07:57:04;;;;;;;45.43;31.50;;;;;;;1.56;94.17;102552.44;5071768;28;20020;-63
2022/01/19 07:59:30;;;;;;;48.45;31.75;;;;;;;1.65;93.87;102561.19;5073426;28;20029;-64
2022/01/19 08:01:56;;;;;;;46.67;30.38;;;;;;;1.60;93.75;102542.84;5071706;28;20115;-64
2022/01/19 08:04:22;;;;;;;45.53;31.60;;;;;;;1.59;94.32;102548.97;5073515;28;20440;-63
2022/01/19 08:06:53;;;;;;;48.97;32.20;;;;;;;1.65;94.21;102553.31;5072001;28;20032;-63
2022/01/19 08:09:22;;;;;;;44.90;30.27;;;;;;;1.59;94.15;102539.34;5072217;28;20064;-63
2022/01/19 08:11:48;;;;;;;49.80;31.33;;;;;;;1.61;93.84;102544.56;5072487;28;20021;-64
2022/01/19 08:14:14;;;;;;;46.47;31.70;;;;;;;1.67;93.88;102547.19;5072340;28;20032;-64
2022/01/19 08:16:42;;;;;;;48.03;32.20;;;;;;;1.69;94.43;102552.47;5073339;28;20082;-64
2022/01/19 08:19:10;;;;;;;44.40;31.50;;;;;;;1.71;94.53;102541.09;5072826;28;20032;-64
2022/01/19 08:21:37;;;;;;;46.60;31.80;;;;;;;1.80;94.45;102540.22;5073292;28;20391;-63
2022/01/19 08:24:03;;;;;;;43.03;30.43;;;;;;;1.78;94.18;102529.72;5072295;28;20020;-64
2022/01/19 08:26:29;;;;;;;44.73;30.80;;;;;;;1.81;94.05;102521.84;5073152;28;20062;-63
2022/01/19 08:28:54;;;;;;;44.77;30.07;;;;;;;1.83;94.35;102524.50;5088143;28;20029;-64
2022/01/19 08:31:20;;;;;;;41.97;29.93;;;;;;;1.81;94.32;102519.22;5071477;28;20032;-63
2022/01/19 08:33:48;;;;;;;41.80;29.93;;;;;;;1.83;94.19;102518.38;5072452;28;20040;-63
2022/01/19 08:36:14;;;;;;;43.70;30.83;;;;;;;1.83;94.26;102523.63;5072266;28;20304;-64
2022/01/19 08:38:42;;;;;;;45.70;30.83;;;;;;;1.87;94.43;102528.84;5072123;28;20032;-63
2022/01/19 08:41:07;;;;;;;42.07;29.37;;;;;;;1.93;94.62;102517.50;5070292;28;20037;-64
2022/01/19 08:43:33;;;;;;;41.33;30.10;;;;;;;1.96;94.34;102517.50;5071067;28;20051;-64
2022/01/19 08:45:58;;;;;;;46.70;31.07;;;;;;;1.95;94.14;102515.75;5072358;28;20536;-64
2022/01/19 08:48:27;;;;;;;42.60;29.37;;;;;;;1.97;94.30;102511.34;5072849;28;20036;-64
2022/01/19 08:50:53;;;;;;;39.60;29.30;;;;;;;1.93;94.37;102489.50;5071238;28;20033;-63
2022/01/19 08:53:19;;;;;;;42.57;30.77;;;;;;;2.00;94.56;102501.75;5073098;28;20111;-63
2022/01/19 08:55:45;;;;;;;42.43;29.97;;;;;;;1.99;94.42;102492.13;5054809;28;20107;-63
2022/01/19 08:58:13;;;;;;;41.70;29.27;;;;;;;2.01;94.61;102502.63;5071241;28;20166;-63
2022/01/19 09:00:40;;;;;;;42.90;30.70;;;;;;;2.02;94.43;102494.72;5072063;28;20115;-63
2022/01/19 09:03:06;;;;;;;40.10;30.03;;;;;;;2.00;94.67;102482.50;5072347;28;20038;-63
2022/01/19 09:05:36;;;;;;;41.53;29.40;;;;;;;2.10;94.72;102489.50;5072366;28;20033;-63
2022/01/19 09:08:02;;;;;;;40.25;29.90;;;;;;;2.12;94.59;102484.22;5072074;28;20119;-63
2022/01/19 09:10:28;;;;;;;39.67;29.27;;;;;;;2.11;94.19;102478.09;5070874;28;20024;-63
2022/01/19 09:12:56;;;;;;;41.23;29.50;;;;;;;2.13;94.26;102478.13;5070273;28;20376;-63
2022/01/19 09:15:23;;;;;;;44.20;29.43;;;;;;;2.12;94.13;102463.22;5072725;28;20366;-64
2022/01/19 09:17:49;;;;;;;43.13;29.57;;;;;;;2.21;94.12;102477.22;5072287;28;20020;-63
2022/01/19 09:20:15;;;;;;;44.83;29.43;;;;;;;2.16;93.76;102467.63;5070911;28;20487;-63
2022/01/19 09:22:41;;;;;;;44.17;30.30;;;;;;;2.22;94.28;102478.09;5071410;28;20027;-63
2022/01/19 09:25:09;;;;;;;40.13;29.10;;;;;;;2.23;94.23;102479.84;5071605;28;20421;-63
2022/01/19 09:27:34;;;;;;;42.20;28.73;;;;;;;2.23;94.70;102472.81;5070395;28;20382;-63
2022/01/19 09:30:00;;;;;;;41.47;28.43;;;;;;;2.27;93.66;102476.34;5070846;28;20033;-63
2022/01/19 09:32:27;;;;;;;42.77;29.63;;;;;;;2.24;94.23;102478.97;5071999;28;20103;-64
2022/01/19 09:34:58;;;;;;;40.33;28.97;;;;;;;1.99;94.47;102423.91;5070668;28;20063;-63
2022/01/19 09:37:26;;;;;;;45.60;29.57;;;;;;;2.29;94.38;102458.81;5067829;28;20032;-64
2022/01/19 09:39:51;;;;;;;41.47;28.17;;;;;;;2.29;94.00;102461.44;5070880;28;20119;-63
2022/01/19 09:42:17;;;;;;;41.80;29.97;;;;;;;2.28;93.65;102444.81;5071277;28;20177;-63
2022/01/19 09:44:43;;;;;;;42.28;29.77;;;;;;;2.33;94.94;102452.69;5081466;28;20031;-63
2022/01/19 09:47:09;;;;;;;37.47;28.33;;;;;;;2.35;94.84;102453.53;5051955;28;20398;-63
2022/01/19 09:49:37;;;;;;;39.38;29.25;;;;;;;2.36;94.22;102442.19;5087054;28;20031;-64
2022/01/19 09:52:05;;;;;;;40.47;29.00;;;;;;;2.39;94.46;102436.94;5070256;28;20513;-64
2022/01/19 09:54:32;;;;;;;39.87;29.37;;;;;;;2.38;94.54;102432.56;5074667;28;20036;-63
2022/01/19 09:56:58;;;;;;;41.20;31.23;;;;;;;2.40;94.56;102430.78;5073250;28;20374;-63
2022/01/19 09:59:24;;;;;;;39.78;29.52;;;;;;;2.45;94.82;102428.16;5071558;28;20023;-63
2022/01/19 10:01:55;;;;;;;40.88;30.30;;;;;;;2.46;93.85;102419.38;5074959;28;20045;-63
2022/01/19 10:04:26;;;;;;;42.20;28.38;;;;;;;2.47;94.35;102411.53;5071216;28;20040;-64
2022/01/19 10:07:31;;;;;;;40.13;28.73;;;;;;;2.52;94.41;102415.88;5073170;28;20028;-63
2022/01/19 10:09:59;;;;;;;40.55;28.15;;;;;;;2.54;94.46;102414.13;5034797;28;20029;-63
2022/01/19 10:18:34;;;;;;;39.85;28.98;;;;;;;2.63;94.90;102407.06;5071584;28;20055;-63
2022/01/19 10:21:07;;;;;;;40.67;27.23;;;;;;;2.65;93.85;102404.44;5073083;28;20086;-63
2022/01/19 10:23:46;;;;;;;39.85;28.48;;;;;;;2.65;94.25;102410.56;5071108;28;20508;-63
2022/01/19 10:26:14;;;;;;;38.53;27.60;;;;;;;2.68;93.96;102414.94;5070867;28;20031;-64
2022/01/19 10:29:00;;;;;;;41.63;27.43;;;;;;;2.72;94.53;102409.63;5071648;28;20025;-64
2022/01/19 10:31:30;;;;;;;39.00;25.95;;;;;;;2.77;94.40;102411.38;5071784;28;20024;-63
2022/01/19 10:34:22;;;;;;;37.42;27.42;;;;;;;2.90;93.71;102395.50;5071133;28;20033;-64
2022/01/19 10:36:56;;;;;;;44.08;27.75;;;;;;;2.80;93.88;102387.72;5071706;28;20040;-63
2022/01/19 10:39:26;;;;;;;36.15;25.75;;;;;;;2.78;93.89;102384.22;5070393;28;20031;-63
2022/01/19 10:41:57;;;;;;;;;;;;;;;2.87;94.17;102381.53;5071967;28;20095;-63
2022/01/19 10:44:43;;;;;;;35.88;27.40;;;;;;;2.90;93.44;102371.88;5071760;28;19948;-63
2022/01/19 10:47:10;;;;;;;37.75;26.42;;;;;;;2.91;93.41;102370.09;5071212;28;20028;-63
2022/01/19 10:49:55;;;;;;;36.08;27.50;;;;;;;2.94;93.34;102364.81;5071786;28;20021;-63
2022/01/19 10:52:28;;;;;;;38.40;28.02;;;;;;;2.94;92.87;102359.56;5071502;28;20077;-63
2022/01/19 10:54:54;;;;;;;40.97;28.27;;;;;;;3.00;92.72;102369.16;5070370;28;20024;-63
2022/01/19 10:57:22;;;;;;;35.90;27.45;;;;;;;3.01;93.00;102381.44;5071673;28;20437;-63
2022/01/19 10:59:50;;;;;;;37.55;25.60;;;;;;;3.00;93.05;102383.22;5071242;28;20036;-63
2022/01/19 11:02:15;;;;;;;40.90;28.80;;;;;;;3.03;93.09;102366.53;5071171;28;20053;-63
2022/01/19 11:04:42;;;;;;;41.40;25.35;;;;;;;3.01;92.97;102363.06;5071390;28;20423;-63
2022/01/19 11:07:17;;;;;;;40.05;29.58;;;;;;;2.96;93.16;102356.06;5053404;28;20498;-63
2022/01/19 11:09:57;;;;;;;42.00;29.55;;;;;;;2.98;93.58;102356.06;5071364;28;20086;-63
2022/01/19 11:12:27;;;;;;;42.53;29.02;;;;;;;3.01;93.74;102348.16;5071014;28;20029;-63
2022/01/19 11:14:53;;;;;;;42.65;29.35;;;;;;;3.02;92.97;102344.63;5070279;28;20052;-63
2022/01/19 11:17:18;;;;;;;44.58;28.67;;;;;;;3.03;92.83;102342.88;5071044;28;20063;-63
2022/01/19 11:19:44;;;;;;;42.80;30.42;;;;;;;3.04;92.78;102326.22;5071174;28;20032;-63
2022/01/19 11:22:18;;;;;;;43.72;30.65;;;;;;;3.04;93.11;102311.34;5071036;28;20028;-63
2022/01/19 11:24:52;;;;;;;38.00;27.33;;;;;;;3.02;93.23;102315.72;5070657;28;20029;-64
2022/01/19 11:27:18;;;;;;;40.30;30.52;;;;;;;3.05;92.50;102312.19;5072284;28;20036;-63
2022/01/19 11:29:44;;;;;;;42.35;29.83;;;;;;;2.97;92.93;102304.38;5075096;28;20028;-63
2022/01/19 11:32:16;;;;;;;42.33;30.13;;;;;;;3.03;92.97;102312.22;5074946;28;20044;-64
2022/01/19 11:34:52;;;;;;;41.15;30.27;;;;;;;2.89;92.98;102274.69;5075138;28;20028;-63
2022/01/19 11:37:42;;;;;;;42.53;30.30;;;;;;;3.05;92.53;102288.53;5074529;28;20020;-63
2022/01/19 11:40:14;;;;;;;42.13;30.30;;;;;;;3.06;93.38;102279.75;5074615;28;20036;-63
2022/01/19 11:42:41;;;;;;;44.53;30.33;;;;;;;3.04;92.46;102277.16;5074868;28;20024;-63
2022/01/19 11:45:37;;;;;;;46.53;31.80;;;;;;;3.08;93.26;102275.38;5073339;28;20107;-63
2022/01/19 11:48:14;;;;;;;42.83;31.35;;;;;;;3.07;93.20;102276.28;5074907;28;20032;-64
2022/01/19 11:50:42;;;;;;;45.15;32.03;;;;;;;3.08;92.81;102264.84;5090697;28;20032;-63
2022/01/19 11:53:11;;;;;;;46.22;31.63;;;;;;;3.09;92.78;102253.44;5094473;28;20031;-64
2022/01/19 11:55:39;;;;;;;43.80;31.42;;;;;;;3.09;92.82;102262.22;5073229;28;20506;-63
2022/01/19 11:58:13;;;;;;;41.88;31.77;;;;;;;3.11;92.96;102256.94;5072761;28;20028;-64
2022/01/19 12:00:40;;;;;;;48.42;32.60;;;;;;;3.13;93.06;102249.94;5074080;28;20035;-63
2022/01/19 12:03:21;;;;;;;46.47;32.60;;;;;;;3.16;92.85;102250.75;5072531;28;20506;-63
2022/01/19 12:05:50;;;;;;;47.45;33.40;;;;;;;3.15;92.06;102249.03;5074518;28;20028;-63
2022/01/19 12:08:24;;;;;;;48.42;34.33;;;;;;;3.11;92.29;102231.53;5073961;28;20532;-64
2022/01/19 12:10:54;;;;;;;47.58;34.97;;;;;;;3.13;92.49;102231.53;5072182;28;20034;-63
2022/01/19 12:16:15;;;;;;;50.22;35.63;;;;;;;3.15;92.51;102228.00;5073790;28;20047;-64
2022/01/19 12:18:46;;;;;;;50.13;35.72;;;;;;;3.21;92.53;102224.44;5074037;28;20052;-64
2022/01/19 12:21:36;;;;;;;52.90;37.05;;;;;;;3.18;92.70;102220.09;5073581;28;20445;-64
2022/01/19 12:24:14;;;;;;;58.00;38.90;;;;;;;3.21;92.67;102210.41;5073444;28;20036;-64
2022/01/19 12:26:52;;;;;;;55.42;38.20;;;;;;;3.24;92.16;102208.63;5072305;28;20136;-63
2022/01/19 12:29:38;;;;;;;54.90;38.08;;;;;;;3.27;91.62;102190.19;5073695;28;20029;-64
2022/01/19 12:32:15;;;;;;;55.45;37.60;;;;;;;3.30;91.61;102189.28;5072497;28;20047;-63
2022/01/19 12:34:58;;;;;;;53.88;38.13;;;;;;;3.30;91.50;102184.91;5073602;28;20453;-64
2022/01/19 12:37:32;;;;;;;56.30;39.53;;;;;;;3.38;91.69;102196.22;5073289;28;20031;-63
2022/01/19 12:40:03;;;;;;;54.58;39.22;;;;;;;3.35;91.58;102193.63;5072590;28;20036;-63
2022/01/19 12:42:43;;;;;;;55.00;39.40;;;;;;;3.47;90.32;102191.72;5072912;28;20029;-64
2022/01/19 12:45:20;;;;;;;58.20;39.10;;;;;;;3.47;91.15;102183.81;5073241;28;20032;-64
2022/01/19 12:47:51;;;;;;;58.67;39.30;;;;;;;3.45;91.12;102172.47;5074100;28;20109;-64
2022/01/19 12:50:16;;;;;;;60.35;39.70;;;;;;;3.48;90.82;102161.91;5073363;28;20063;-64
2022/01/19 12:52:46;;;;;;;57.25;39.92;;;;;;;3.50;90.63;102154.84;5072401;28;20109;-64
2022/01/19 12:55:18;;;;;;;56.58;40.83;;;;;;;3.55;90.41;102151.28;5072718;28;20036;-64
2022/01/19 12:57:44;;;;;;;58.22;38.67;;;;;;;3.56;90.31;102150.41;5073632;28;20036;-66
2022/01/19 13:00:13;;;;;;;56.30;40.30;;;;;;;3.63;90.23;102144.16;5073352;28;20383;-66
2022/01/19 13:02:39;;;;;;;55.43;36.73;;;;;;;3.67;90.25;102141.47;5073391;28;20044;-64